Česky Dansk Deutsch English Español Suomi Français Magyar Italiano Nederlands norsk Polski Português svenska Türkçe

 

Het Weer

Kajaani (Finland)

15:50, 2 augustus 2016 (GMT)

NWNNE
WE
SWSSE
Home            
Kajaani Suomussalmi Pudasjarvi Oulu Kuopio Hailuoto Viitasaari Kuusamo Joensuu Kemi Kruunupyy Jyvaskyla Varkaus Ahtari Kauhava Savonlinna Rovaniemi Mikkeli Lulea / Kallax Ilmajoki Seinajoki-Ilmajok Halli Skelleftea Airport

Om een weerknop op uw website of weblog te plaatsen, copieer onderstaande code en plak die in uw pagina. In het eerste vakje staat HTML-code, in het tweede vakje UBB-code.


Add to Google

Details

Wind speed:2 bf, 6 kn, 3.1 m/s, 6.9 miles/h, 11.1 km/h
Wind direction:S, 190° - W, 280°
Visibilidade global:Maior de 10000 m, 10 km, 32800 ft, 6.2 miles
Clouds:Nubolosidade descontinua at 6400 ft, 1951 m
Het Weer:leve chuviscos chuva
Temperatura:17°C, 63°F
Ponto de orvalho:11°C, 52°F
Pressão atmosférica:1006 hPa, 754.6 mmHg, 29.71 inHg, 0.993 atm
Humidade relativa:67.7 %
METAR:EFKI 021550Z AUTO 24006KT 190V280 9999 -SHRA BKN064 17/11 Q1006

Snelkoppelingen

Actuele weersinformatie van de hele wereld. Voeg locaties toe met het plus (+) symbool. Deze snelkoppelingen kunnen worden toegevoegd aan Google.

Lid van de Technetium groep

website free tracking
StatCounter NetStat W3C Validator

06-12-2019 10:25:36
astro.technetium.be money.technetium.be phote.technetium.be tafeltennistafel.technetium.be www.ligfiets.net